DW2802 Ogijares ES current weather conditions

sailwx.info

Wind from 128 at 0 knots gusting 2

Air temperature 9.4° C
Dewpoint -1.0° C

Last reported at 2017-Nov-24 04:58 UTC.
Time now 2017-Nov-24 05:32 UTC

Location: N 37°07' W 003°36'.
View on Google Maps.

See reports from other nearby stations

  
Tides and Currents Weather Stations Pressure Air Temp Water Temp Dewpoint Dewpoint Depression Visibility Wind Speed Wind Dir Waves Ship Positions
date/time (UTC)wind fromknots sea level pressurealtimeterstation pressurevisibilityair tempwater tempwave heightnotes
2017-Nov-24 04:58 128 0 gusting 2 9.4
2017-Nov-24 04:43 128 2 gusting 3 9.4
2017-Nov-24 04:28 128 0 gusting 3 9.4
2017-Nov-24 04:13 128 2 gusting 3 9.4
2017-Nov-24 03:58 128 1 gusting 3 10.0
2017-Nov-24 03:43 128 10.0
2017-Nov-24 03:28 128 0 gusting 2 9.4
2017-Nov-24 03:16 128 2 gusting 3 10.0
2017-Nov-24 02:58 128 1 gusting 3 10.0
2017-Nov-24 02:43 128 0 gusting 3 9.4
2017-Nov-24 02:28 128 2 gusting 3 9.4
2017-Nov-24 02:13 128 2 gusting 3 9.4
2017-Nov-24 01:58 128 0 gusting 2 9.4
2017-Nov-24 01:43 128 1 gusting 2 9.4
2017-Nov-24 01:28 128 10.0
2017-Nov-24 01:13 128 0 gusting 2 10.6
2017-Nov-24 00:58 128 1 gusting 3 10.6
2017-Nov-24 00:43 126 2 gusting 4 11.1
2017-Nov-24 00:28 126 3 gusting 4 11.1
2017-Nov-24 00:13 126 0 gusting 4 10.6
2017-Nov-23 23:58 126 3 gusting 6 10.6
2017-Nov-23 23:43 126 0 gusting 2 11.1
2017-Nov-23 23:28 126 0 gusting 1 11.7
2017-Nov-23 23:13 126 0 gusting 1 11.7
2017-Nov-23 22:58 126 11.1
2017-Nov-23 22:43 126 2 gusting 3 11.1
2017-Nov-23 22:28 126 0 gusting 2 10.6
2017-Nov-23 22:13 126 0 gusting 1 11.7
2017-Nov-23 21:58 126 2 gusting 5 11.7
2017-Nov-23 21:44 126 0 gusting 3 11.1
2017-Nov-23 21:28 126 2 gusting 5 11.1
2017-Nov-23 21:13 126 1 gusting 3 11.7
2017-Nov-23 20:58 126 0 gusting 2 12.2
2017-Nov-23 20:43 126 1 gusting 5 12.2
2017-Nov-23 20:28 126 2 gusting 3 11.7
2017-Nov-23 20:13 126 0 gusting 2 12.8
2017-Nov-23 19:57 126 12.8
2017-Nov-23 19:42 126 12.8
2017-Nov-23 19:27 126 13.3
2017-Nov-23 19:12 126 1 gusting 3 13.3
2017-Nov-23 18:57 126 1 gusting 3 13.3
2017-Nov-23 18:42 126 2 gusting 6 13.9
2017-Nov-23 18:27 124 2 gusting 6 13.9
2017-Nov-23 18:13 123 3 gusting 6 14.4
2017-Nov-23 17:57 110 3 gusting 6 13.9
2017-Nov-23 17:42 078 3 gusting 4 14.4
2017-Nov-23 17:27 065 2 gusting 4 15.0
2017-Nov-23 17:13 055 3 gusting 4 15.6
2017-Nov-23 16:57 032 16.7
2017-Nov-23 16:42 005 17.8
2017-Nov-23 16:27 005 18.9
2017-Nov-23 16:12 005 19.4
2017-Nov-23 15:57 005 19.4
2017-Nov-23 15:42 005 1 gusting 3 19.4
2017-Nov-23 15:27 111 20.0
2017-Nov-23 15:12 112 20.0
2017-Nov-23 14:57 112 20.0
2017-Nov-23 14:42 112 20.6
2017-Nov-23 14:27 112 20.6
2017-Nov-23 14:12 112 20.0
2017-Nov-23 13:57 119 20.0
2017-Nov-23 13:42 119 20.0
2017-Nov-23 13:27 119 20.0
2017-Nov-23 13:12 119 18.9
2017-Nov-23 12:57 119 18.9
2017-Nov-23 12:42 119 17.8
2017-Nov-23 12:27 119 17.2
2017-Nov-23 12:12 119 16.1
2017-Nov-23 11:57 119 16.1
2017-Nov-23 11:42 119 15.6
2017-Nov-23 11:27 119 14.4
2017-Nov-23 11:12 119 13.9
2017-Nov-23 10:57 255 12.8
2017-Nov-23 10:41 255 12.2
2017-Nov-23 10:26 254 11.1
2017-Nov-23 10:11 255 1 gusting 3 10.6
2017-Nov-23 09:56 254 10.6
2017-Nov-23 09:41 254 10.6
2017-Nov-23 09:26 254 10.6
2017-Nov-23 09:11 254 10.0
2017-Nov-23 08:57 254 9.4
2017-Nov-23 08:41 254 8.3
2017-Nov-23 08:26 255 7.2
2017-Nov-23 08:11 196 6.7
2017-Nov-23 07:56 196 6.1
2017-Nov-23 07:41 196 1 gusting 2 6.1
2017-Nov-23 07:26 196 6.1
2017-Nov-23 07:11 196 1 gusting 2 6.1
2017-Nov-23 06:56 196 1 gusting 2 6.1
2017-Nov-23 06:41 196 0 gusting 2 6.1
2017-Nov-23 06:26 196 1 gusting 2 6.7
2017-Nov-23 06:11 196 6.1
2017-Nov-23 05:56 196 1 gusting 3 5.6
2017-Nov-23 05:41 196 2 gusting 3 5.6
2017-Nov-23 05:26 196 1 gusting 3 5.6
2017-Nov-23 05:11 196 5.6
2017-Nov-23 04:55 196 0 gusting 1 5.6
2017-Nov-23 04:41 196 0 gusting 1 5.6
2017-Nov-23 04:25 196 2 gusting 4 5.6
2017-Nov-23 04:10 196 1 gusting 3 6.1
2017-Nov-23 03:55 196 6.7
2017-Nov-23 03:41 196 6.7
2017-Nov-23 03:34 196 6.7
2017-Nov-23 03:13 196 1 gusting 4 6.7
2017-Nov-23 02:55 196 2 gusting 3 7.2
2017-Nov-23 02:40 196 1 gusting 3 7.2
2017-Nov-23 02:25 196 2 gusting 4 6.7
2017-Nov-23 02:10 196 1 gusting 2 6.7
2017-Nov-23 01:55 196 1 gusting 3 5.6
2017-Nov-23 01:40 196 6.1
2017-Nov-23 01:25 196 0 gusting 2 7.8
2017-Nov-23 01:10 196 2 gusting 4 7.2
2017-Nov-23 00:55 196 2 gusting 3 7.2
2017-Nov-23 00:40 196 7.2
2017-Nov-23 00:25 196 0 gusting 1 7.2
2017-Nov-23 00:10 196 2 gusting 4 7.8
2017-Nov-22 23:55 196 0 gusting 2 8.3
2017-Nov-22 23:40 196 0 gusting 2 8.3
2017-Nov-22 23:25 196 0 gusting 2 8.3
2017-Nov-22 23:10 196 2 gusting 4 8.3
2017-Nov-22 22:55 197 2 gusting 4 7.8
2017-Nov-22 22:40 202 3 gusting 4 7.8
2017-Nov-22 22:25 206 2 gusting 3 8.3
2017-Nov-22 22:10 207 1 gusting 3 8.3
2017-Nov-22 21:55 207 1 gusting 3 8.3
2017-Nov-22 21:40 207 2 gusting 4 8.3
2017-Nov-22 21:25 207 2 gusting 4 8.3
2017-Nov-22 21:10 207 1 gusting 3 8.3
2017-Nov-22 20:55 207 2 gusting 4 8.3
2017-Nov-22 20:40 207 1 gusting 2 9.4
2017-Nov-22 20:25 207 1 gusting 3 9.4
2017-Nov-22 20:10 207 3 gusting 4 9.4
2017-Nov-22 19:55 209 3 gusting 4 9.4
2017-Nov-22 19:40 209 1 gusting 3 10.0
2017-Nov-22 19:25 209 1 gusting 2 10.0
2017-Nov-22 19:10 209 1 gusting 2 10.6
2017-Nov-22 18:55 209 10.6
2017-Nov-22 18:40 209 2 gusting 4 11.1
2017-Nov-22 18:25 210 3 gusting 4 11.7
2017-Nov-22 18:10 217 2 gusting 4 11.7
2017-Nov-22 17:55 221 2 gusting 4 11.7
2017-Nov-22 17:40 225 2 gusting 4 12.2
2017-Nov-22 17:25 240 2 gusting 4 12.8
2017-Nov-22 17:10 252 1 gusting 3 13.9
2017-Nov-22 16:55 266 15.0
2017-Nov-22 16:40 266 16.7
2017-Nov-22 16:25 266 18.9
2017-Nov-22 16:10 331 18.9
2017-Nov-22 15:55 312 18.3
2017-Nov-22 15:40 312 17.8
2017-Nov-22 15:25 313 1 gusting 4 17.2
2017-Nov-22 15:10 314 2 gusting 5 17.8
2017-Nov-22 14:55 319 2 gusting 4 17.8
2017-Nov-22 14:40 315 2 gusting 7 17.8
2017-Nov-22 14:24 084 0 gusting 3 18.3
2017-Nov-22 14:10 084 0 gusting 5 18.3
2017-Nov-22 13:54 085 18.3
2017-Nov-22 13:39 086 0 gusting 6 17.8
2017-Nov-22 13:24 092 17.8
2017-Nov-22 13:09 092 17.2
2017-Nov-22 12:54 092 16.7
2017-Nov-22 12:39 092 15.6
2017-Nov-22 12:25 092 15.0
2017-Nov-22 12:09 092 14.4
2017-Nov-22 11:54 095 0 gusting 3 13.9
2017-Nov-22 11:39 095 0 gusting 3 13.3
2017-Nov-22 11:24 096 2 gusting 5 13.3
2017-Nov-22 11:09 098 0 gusting 3 12.8
2017-Nov-22 10:54 098 2 gusting 5 12.2
2017-Nov-22 10:39 099 0 gusting 2 12.2
2017-Nov-22 10:24 099 0 gusting 3 11.1
2017-Nov-22 10:09 100 1 gusting 3 10.6
2017-Nov-22 09:54 100 0 gusting 2 10.6
2017-Nov-22 09:39 100 10.0
2017-Nov-22 09:23 100 8.9
2017-Nov-22 09:08 100 0 gusting 2 8.3
2017-Nov-22 08:53 100 7.8
2017-Nov-22 08:38 100 6.7
2017-Nov-22 08:23 100 6.7
2017-Nov-22 08:08 100 6.7
2017-Nov-22 07:53 100 1 gusting 2 5.6
2017-Nov-22 07:38 100 1 gusting 3 5.6
2017-Nov-22 07:23 100 0 gusting 1 5.0
2017-Nov-22 07:08 100 0 gusting 2 5.6
2017-Nov-22 06:53 100 6.1
2017-Nov-22 06:38 100 2 gusting 5 6.7
2017-Nov-22 06:23 100 1 gusting 5 6.7
2017-Nov-22 06:08 100 2 gusting 3 6.7
2017-Nov-22 05:53 100 2 gusting 3 6.1
2017-Nov-22 05:38 100 1 gusting 3 6.1
2017-Nov-22 05:23 100 1 gusting 3 6.1
2017-Nov-22 05:08 100 0 gusting 3 6.1